createdAt,value
2023-04-28T00:00:56.144Z,0
2023-04-28T00:02:10.656Z,0
2023-04-28T00:03:24.216Z,0
2023-04-28T00:04:38.678Z,0
2023-04-28T00:05:53.144Z,0
2023-04-28T00:07:07.646Z,0
2023-04-28T00:08:22.086Z,0
2023-04-28T00:09:36.548Z,0
2023-04-28T00:10:51.055Z,0
2023-04-28T00:12:05.479Z,0
2023-04-28T00:13:19.954Z,0
2023-04-28T00:14:34.458Z,0
2023-04-28T00:15:48.936Z,0
2023-04-28T00:17:03.399Z,0
2023-04-28T00:18:17.859Z,0
2023-04-28T00:19:31.407Z,0
2023-04-28T00:20:45.875Z,0
2023-04-28T00:22:00.351Z,0
2023-04-28T00:23:14.826Z,0
2023-04-28T00:24:29.319Z,0
2023-04-28T00:25:43.793Z,0
2023-04-28T00:26:58.264Z,0
2023-04-28T00:28:12.686Z,0
2023-04-28T00:29:27.157Z,0
2023-04-28T00:30:41.661Z,0
2023-04-28T00:31:56.132Z,0
2023-04-28T00:33:10.575Z,0
2023-04-28T00:34:25.069Z,0
2023-04-28T00:35:38.621Z,0
2023-04-28T00:36:53.124Z,0
2023-04-28T00:38:07.556Z,0
2023-04-28T00:39:22.023Z,0
2023-04-28T00:40:36.531Z,0
2023-04-28T00:41:50.977Z,0
2023-04-28T00:43:05.428Z,0
2023-04-28T00:44:19.898Z,0
2023-04-28T00:45:34.380Z,0
2023-04-28T00:46:48.846Z,0
2023-04-28T00:48:03.307Z,0
2023-04-28T00:49:17.766Z,0
2023-04-28T00:50:32.237Z,0
2023-04-28T00:51:45.869Z,0
2023-04-28T00:53:00.303Z,0
2023-04-28T00:54:14.796Z,0
2023-04-28T00:55:29.231Z,0
2023-04-28T00:56:43.711Z,0
2023-04-28T00:57:58.212Z,0
2023-04-28T00:59:12.681Z,0
2023-04-28T01:00:27.148Z,0
2023-04-28T01:01:41.611Z,0
2023-04-28T01:02:56.058Z,0
2023-04-28T01:04:10.548Z,0
2023-04-28T01:05:24.977Z,0
2023-04-28T01:06:39.484Z,0
2023-04-28T01:07:53.070Z,0
2023-04-28T01:10:22.023Z,0
2023-04-28T01:11:36.446Z,0
2023-04-28T01:12:50.905Z,0
2023-04-28T01:14:05.394Z,0
2023-04-28T01:15:19.844Z,0
2023-04-28T01:16:34.327Z,0
2023-04-28T01:17:48.818Z,0
2023-04-28T01:19:03.251Z,0
2023-04-28T01:20:17.727Z,0
2023-04-28T01:21:32.191Z,0
2023-04-28T01:22:46.691Z,0
2023-04-28T01:24:00.293Z,0
2023-04-28T01:25:14.758Z,0
2023-04-28T01:26:29.216Z,0
2023-04-28T01:27:43.664Z,0
2023-04-28T01:28:58.119Z,0
2023-04-28T01:30:12.590Z,0
2023-04-28T01:31:27.050Z,0
2023-04-28T01:32:41.523Z,0
2023-04-28T01:33:55.996Z,0
2023-04-28T01:35:10.495Z,0
2023-04-28T01:36:24.966Z,0
2023-04-28T01:37:39.401Z,0
2023-04-28T01:38:53.879Z,0
2023-04-28T01:40:08.340Z,0
2023-04-28T01:41:21.959Z,0
2023-04-28T01:42:36.400Z,0
2023-04-28T01:43:50.869Z,0
2023-04-28T01:45:05.328Z,0
2023-04-28T01:46:19.799Z,0
2023-04-28T01:47:34.261Z,0
2023-04-28T01:48:48.730Z,0
2023-04-28T01:50:03.239Z,0
2023-04-28T01:51:17.703Z,0
2023-04-28T01:52:32.133Z,0
2023-04-28T01:53:46.603Z,0
2023-04-28T01:55:01.075Z,0
2023-04-28T01:56:15.542Z,0
2023-04-28T01:57:29.136Z,0
2023-04-28T01:58:43.599Z,0
2023-04-28T01:59:58.115Z,0
2023-04-28T02:01:12.571Z,0
2023-04-28T02:02:27.055Z,0
2023-04-28T02:04:55.976Z,0
2023-04-28T02:06:10.449Z,0
2023-04-28T02:07:24.874Z,0
2023-04-28T02:08:39.349Z,0
2023-04-28T02:09:53.816Z,0
2023-04-28T02:11:08.283Z,0
2023-04-28T02:12:22.769Z,0
2023-04-28T02:13:36.343Z,0
2023-04-28T02:14:50.810Z,0
2023-04-28T02:16:05.283Z,0
2023-04-28T02:17:19.753Z,0
2023-04-28T02:19:48.682Z,0
2023-04-28T02:21:03.154Z,0
2023-04-28T02:22:17.623Z,0
2023-04-28T02:23:32.087Z,0
2023-04-28T02:24:46.570Z,0
2023-04-28T02:26:01.044Z,0
2023-04-28T02:27:15.489Z,0
2023-04-28T02:28:29.956Z,0
2023-04-28T02:29:43.555Z,0
2023-04-28T02:30:58.025Z,0
2023-04-28T02:32:12.491Z,0
2023-04-28T02:33:26.966Z,0
2023-04-28T02:34:41.420Z,0
2023-04-28T02:35:55.896Z,0
2023-04-28T02:37:10.357Z,0
2023-04-28T02:39:39.307Z,0
2023-04-28T02:40:53.765Z,0
2023-04-28T02:42:08.232Z,0
2023-04-28T02:44:37.181Z,0
2023-04-28T02:45:50.791Z,0
2023-04-28T02:47:04.375Z,0
2023-04-28T02:48:18.835Z,0
2023-04-28T02:49:33.318Z,0
2023-04-28T02:50:46.907Z,0
2023-04-28T02:52:01.370Z,0
2023-04-28T02:54:30.308Z,0
2023-04-28T02:55:44.762Z,0
2023-04-28T02:56:59.233Z,0
2023-04-28T02:58:13.718Z,0
2023-04-28T02:59:28.171Z,0
2023-04-28T03:00:42.649Z,0
2023-04-28T03:01:57.107Z,0
2023-04-28T03:04:26.056Z,0
2023-04-28T03:05:40.517Z,0
2023-04-28T03:06:54.134Z,0
2023-04-28T03:09:22.183Z,0
2023-04-28T03:10:36.651Z,0
2023-04-28T03:11:51.126Z,0
2023-04-28T03:13:05.596Z,0
2023-04-28T03:14:20.049Z,0
2023-04-28T03:15:34.523Z,0
2023-04-28T03:16:48.994Z,0
2023-04-28T03:19:17.933Z,0
2023-04-28T03:20:32.393Z,0
2023-04-28T03:21:46.864Z,0
2023-04-28T03:24:15.771Z,0
2023-04-28T03:25:30.166Z,0
2023-04-28T03:26:43.712Z,0
2023-04-28T03:29:12.545Z,0
2023-04-28T03:30:26.951Z,0
2023-04-28T03:31:41.365Z,0
2023-04-28T03:32:55.783Z,0
2023-04-28T03:34:10.210Z,0
2023-04-28T03:35:24.609Z,0
2023-04-28T03:36:39.018Z,0
2023-04-28T03:37:53.446Z,0
2023-04-28T03:39:07.847Z,0
2023-04-28T03:40:22.275Z,0
2023-04-28T03:41:36.687Z,0
2023-04-28T03:42:50.235Z,0
2023-04-28T03:44:04.641Z,0
2023-04-28T03:45:19.054Z,0
2023-04-28T03:46:33.467Z,0
2023-04-28T03:49:02.283Z,0
2023-04-28T03:50:16.711Z,0
2023-04-28T03:51:31.123Z,0
2023-04-28T03:52:45.535Z,0
2023-04-28T03:53:59.950Z,0
2023-04-28T03:55:14.377Z,0
2023-04-28T03:56:27.909Z,0
2023-04-28T03:57:42.348Z,0
2023-04-28T03:58:56.747Z,0
2023-04-28T04:00:11.154Z,0
2023-04-28T04:01:24.699Z,0
2023-04-28T04:02:39.108Z,0
2023-04-28T04:03:53.533Z,0
2023-04-28T04:05:07.933Z,0
2023-04-28T04:06:22.369Z,0
2023-04-28T04:07:36.778Z,0
2023-04-28T04:08:51.191Z,0
2023-04-28T04:10:05.597Z,0
2023-04-28T04:11:19.158Z,5
2023-04-28T04:13:47.103Z,5
2023-04-28T04:15:01.520Z,5
2023-04-28T04:16:15.931Z,5
2023-04-28T04:17:30.343Z,5
2023-04-28T04:18:44.762Z,5
2023-04-28T04:19:59.174Z,5
2023-04-28T04:21:13.587Z,5
2023-04-28T04:23:42.407Z,5
2023-04-28T04:24:56.822Z,5
2023-04-28T04:26:11.252Z,5
2023-04-28T04:28:40.000Z,11
2023-04-28T04:29:53.639Z,11
2023-04-28T04:31:07.167Z,11
2023-04-28T04:34:50.409Z,11
2023-04-28T04:36:04.811Z,11
2023-04-28T04:37:19.244Z,11
2023-04-28T04:38:33.657Z,11
2023-04-28T04:39:48.058Z,11
2023-04-28T04:41:02.494Z,11
2023-04-28T04:42:16.897Z,11
2023-04-28T04:43:31.307Z,11
2023-04-28T04:44:45.714Z,11
2023-04-28T04:45:59.284Z,11
2023-04-28T04:48:28.113Z,11
2023-04-28T04:49:41.632Z,16
2023-04-28T04:50:56.064Z,16
2023-04-28T04:52:10.484Z,16
2023-04-28T04:53:24.894Z,16
2023-04-28T04:54:39.305Z,16
2023-04-28T04:55:53.718Z,16
2023-04-28T04:57:08.136Z,16
2023-04-28T04:58:22.546Z,16
2023-04-28T04:59:36.968Z,16
2023-04-28T05:00:50.512Z,22
2023-04-28T05:02:04.052Z,22
2023-04-28T05:03:18.451Z,22
2023-04-28T05:04:32.879Z,22
2023-04-28T05:05:47.289Z,22
2023-04-28T05:07:01.693Z,22
2023-04-28T05:08:16.113Z,22
2023-04-28T05:09:30.526Z,22
2023-04-28T05:10:44.937Z,22
2023-04-28T05:13:13.773Z,22
2023-04-28T05:14:28.181Z,22
2023-04-28T05:15:42.594Z,22
2023-04-28T05:16:57.026Z,22
2023-04-28T05:18:11.440Z,22
2023-04-28T05:19:24.972Z,28
2023-04-28T05:20:39.377Z,28
2023-04-28T05:23:08.203Z,28
2023-04-28T05:24:22.617Z,28
2023-04-28T05:25:36.183Z,28
2023-04-28T05:26:49.716Z,28
2023-04-28T05:28:04.138Z,28
2023-04-28T05:29:18.535Z,28
2023-04-28T05:30:32.962Z,33
2023-04-28T05:33:01.777Z,33
2023-04-28T05:34:16.207Z,33
2023-04-28T05:35:30.614Z,33
2023-04-28T05:36:45.044Z,33
2023-04-28T05:37:59.447Z,39
2023-04-28T05:39:13.860Z,39
2023-04-28T05:40:28.274Z,39
2023-04-28T05:41:42.687Z,39
2023-04-28T05:42:57.108Z,45
2023-04-28T05:44:11.517Z,45
2023-04-28T05:45:25.049Z,45
2023-04-28T05:46:39.468Z,50
2023-04-28T05:47:53.882Z,50
2023-04-28T05:49:08.299Z,50
2023-04-28T05:50:22.712Z,50
2023-04-28T05:52:51.523Z,50
2023-04-28T05:54:05.953Z,50
2023-04-28T05:55:20.368Z,50
2023-04-28T05:56:34.786Z,56
2023-04-28T05:57:49.197Z,56
2023-04-28T05:59:02.738Z,56
2023-04-28T06:00:16.272Z,56
2023-04-28T06:01:30.694Z,56
2023-04-28T06:02:45.117Z,56
2023-04-28T06:03:59.541Z,56
2023-04-28T06:05:13.944Z,56
2023-04-28T06:06:28.358Z,56
2023-04-28T06:07:42.776Z,56
2023-04-28T06:08:57.190Z,56
2023-04-28T06:10:11.584Z,56
2023-04-28T06:11:26.008Z,50
2023-04-28T06:12:39.569Z,56
2023-04-28T06:13:53.109Z,56
2023-04-28T06:15:07.530Z,56
2023-04-28T06:16:21.921Z,61
2023-04-28T06:17:36.350Z,67
2023-04-28T06:18:50.770Z,61
2023-04-28T06:21:19.591Z,67
2023-04-28T06:22:34.015Z,61
2023-04-28T06:23:48.411Z,67
2023-04-28T06:26:17.246Z,73
2023-04-28T06:27:31.649Z,95
2023-04-28T06:28:46.067Z,95
2023-04-28T06:29:59.639Z,101
2023-04-28T06:31:14.040Z,90
2023-04-28T06:32:28.456Z,90
2023-04-28T06:33:42.870Z,95
2023-04-28T06:36:10.820Z,95
2023-04-28T06:37:25.229Z,95
2023-04-28T06:38:39.665Z,95
2023-04-28T06:39:54.060Z,90
2023-04-28T06:41:08.468Z,90
2023-04-28T06:42:22.884Z,84
2023-04-28T06:43:37.304Z,84
2023-04-28T06:46:06.129Z,84
2023-04-28T06:47:19.695Z,78
2023-04-28T06:48:34.108Z,78
2023-04-28T06:52:16.459Z,67
2023-04-28T06:53:30.870Z,61
2023-04-28T06:54:45.293Z,61
2023-04-28T06:55:59.702Z,61
2023-04-28T06:57:14.131Z,61
2023-04-28T06:58:28.539Z,61
2023-04-28T07:00:56.475Z,67
2023-04-28T07:02:10.904Z,67
2023-04-28T07:03:24.444Z,67
2023-04-28T07:04:38.869Z,67
2023-04-28T07:05:53.272Z,67
2023-04-28T07:07:07.682Z,73
2023-04-28T07:08:22.095Z,73
2023-04-28T07:09:36.517Z,78
2023-04-28T07:10:50.918Z,78
2023-04-28T07:12:05.336Z,84
2023-04-28T07:13:19.768Z,95
2023-04-28T07:14:34.162Z,84
2023-04-28T07:15:48.567Z,78
2023-04-28T07:17:02.984Z,78
2023-04-28T07:18:16.559Z,78
2023-04-28T07:20:45.385Z,73
2023-04-28T07:21:59.796Z,73
2023-04-28T07:23:14.197Z,67
2023-04-28T07:24:27.729Z,61
2023-04-28T07:25:42.144Z,61
2023-04-28T07:26:56.558Z,61
2023-04-28T07:28:10.978Z,61
2023-04-28T07:29:25.399Z,67
2023-04-28T07:30:39.812Z,67
2023-04-28T07:31:54.240Z,67
2023-04-28T07:33:08.639Z,67
2023-04-28T07:35:37.466Z,67
2023-04-28T07:36:51.884Z,67
2023-04-28T07:38:06.280Z,67
2023-04-28T07:39:20.708Z,73
2023-04-28T07:40:35.125Z,73
2023-04-28T07:41:49.532Z,78
2023-04-28T07:43:03.079Z,84
2023-04-28T07:44:17.476Z,84
2023-04-28T07:45:31.896Z,90
2023-04-28T07:46:46.305Z,95
2023-04-28T07:47:59.854Z,101
2023-04-28T07:50:27.812Z,95
2023-04-28T07:51:42.223Z,95
2023-04-28T07:52:56.629Z,90
2023-04-28T07:54:11.066Z,95
2023-04-28T07:55:25.479Z,95
2023-04-28T07:56:39.879Z,101
2023-04-28T07:57:54.299Z,106
2023-04-28T07:59:08.718Z,106
2023-04-28T08:00:23.128Z,106
2023-04-28T08:01:37.532Z,106
2023-04-28T08:02:51.956Z,112
2023-04-28T08:05:20.784Z,118
2023-04-28T08:06:35.193Z,118
2023-04-28T08:07:48.720Z,123
2023-04-28T08:09:03.157Z,135
2023-04-28T08:10:17.573Z,129
2023-04-28T08:11:31.964Z,129
2023-04-28T08:12:46.378Z,118
2023-04-28T08:15:15.211Z,112
2023-04-28T08:16:29.623Z,106
2023-04-28T08:17:44.050Z,101
2023-04-28T08:18:58.445Z,101
2023-04-28T08:20:12.851Z,95
2023-04-28T08:21:27.265Z,95
2023-04-28T08:22:41.685Z,95
2023-04-28T08:23:55.219Z,95
2023-04-28T08:25:09.646Z,95
2023-04-28T08:26:24.051Z,95
2023-04-28T08:27:38.459Z,95
2023-04-28T08:30:07.296Z,90
2023-04-28T08:31:20.851Z,84
2023-04-28T08:32:34.388Z,78
2023-04-28T08:35:03.217Z,78
2023-04-28T08:36:17.612Z,78
2023-04-28T08:37:32.032Z,78
2023-04-28T08:38:46.446Z,78
2023-04-28T08:40:00.870Z,78
2023-04-28T08:41:15.274Z,73
2023-04-28T08:42:29.699Z,73
2023-04-28T08:43:44.112Z,73
2023-04-28T08:44:58.508Z,73
2023-04-28T08:46:12.934Z,73
2023-04-28T08:47:27.366Z,73
2023-04-28T08:48:40.872Z,73
2023-04-28T08:49:55.309Z,73
2023-04-28T08:51:09.699Z,78
2023-04-28T08:52:24.123Z,78
2023-04-28T08:53:38.536Z,78
2023-04-28T08:54:52.960Z,78
2023-04-28T08:56:07.366Z,73
2023-04-28T08:57:21.777Z,73
2023-04-28T08:58:35.330Z,73
2023-04-28T08:59:48.853Z,73
2023-04-28T09:01:03.268Z,73
2023-04-28T09:02:17.694Z,73
2023-04-28T09:03:32.092Z,67
2023-04-28T09:04:46.509Z,67
2023-04-28T09:06:00.937Z,61
2023-04-28T09:08:29.752Z,56
2023-04-28T09:09:44.167Z,56
2023-04-28T09:10:58.600Z,56
2023-04-28T09:12:13.006Z,61
2023-04-28T09:13:27.403Z,61
2023-04-28T09:14:41.840Z,61
2023-04-28T09:15:56.247Z,56
2023-04-28T09:17:09.771Z,56
2023-04-28T09:18:24.206Z,56
2023-04-28T09:19:38.608Z,56
2023-04-28T09:20:53.036Z,61
2023-04-28T09:23:21.835Z,61
2023-04-28T09:24:35.396Z,67
2023-04-28T09:25:49.818Z,67
2023-04-28T09:27:03.354Z,67
2023-04-28T09:28:17.748Z,73
2023-04-28T09:29:32.180Z,78
2023-04-28T09:30:46.592Z,84
2023-04-28T09:32:00.996Z,84
2023-04-28T09:33:15.410Z,90
2023-04-28T09:34:29.825Z,90
2023-04-28T09:35:44.259Z,90
2023-04-28T09:36:58.650Z,90
2023-04-28T09:38:12.209Z,90
2023-04-28T09:39:25.755Z,90
2023-04-28T09:40:40.180Z,90
2023-04-28T09:41:54.569Z,90
2023-04-28T09:43:09.007Z,90
2023-04-28T09:44:23.394Z,84
2023-04-28T09:45:37.812Z,78
2023-04-28T09:46:52.224Z,73
2023-04-28T09:48:06.630Z,73
2023-04-28T09:49:21.065Z,67
2023-04-28T09:50:35.478Z,67
2023-04-28T09:51:49.892Z,61
2023-04-28T09:53:04.312Z,67
2023-04-28T09:54:18.701Z,67
2023-04-28T09:55:32.258Z,67
2023-04-28T09:56:46.664Z,73
2023-04-28T09:58:01.082Z,73
2023-04-28T09:59:15.495Z,73
2023-04-28T10:00:29.896Z,73
2023-04-28T10:02:58.728Z,78
2023-04-28T10:04:13.134Z,78
2023-04-28T10:05:27.575Z,78
2023-04-28T10:06:41.978Z,84
2023-04-28T10:07:56.393Z,95
2023-04-28T10:09:10.787Z,95
2023-04-28T10:10:25.230Z,95
2023-04-28T10:11:39.642Z,101
2023-04-28T10:12:54.034Z,101
2023-04-28T10:14:07.569Z,95
2023-04-28T10:15:21.996Z,90
2023-04-28T10:16:36.399Z,84
2023-04-28T10:17:50.839Z,84
2023-04-28T10:19:05.222Z,84
2023-04-28T10:20:19.649Z,78
2023-04-28T10:22:48.479Z,73
2023-04-28T10:24:02.891Z,73
2023-04-28T10:25:17.309Z,73
2023-04-28T10:26:31.719Z,73
2023-04-28T10:27:46.122Z,78
2023-04-28T10:29:00.554Z,84
2023-04-28T10:30:14.092Z,90
2023-04-28T10:31:28.495Z,95
2023-04-28T10:32:42.917Z,95
2023-04-28T10:33:57.327Z,95
2023-04-28T10:35:11.726Z,101
2023-04-28T10:36:26.149Z,106
2023-04-28T10:37:40.551Z,106
2023-04-28T10:38:54.966Z,112
2023-04-28T10:40:09.390Z,112
2023-04-28T10:41:23.799Z,112
2023-04-28T10:42:38.225Z,106
2023-04-28T10:43:52.631Z,101
2023-04-28T10:45:07.057Z,101
2023-04-28T10:46:20.598Z,95
2023-04-28T10:47:35.001Z,95
2023-04-28T10:48:49.399Z,90
2023-04-28T10:50:03.804Z,90
2023-04-28T10:51:18.255Z,90
2023-04-28T10:52:32.645Z,95
2023-04-28T10:53:47.044Z,95
2023-04-28T10:55:01.495Z,95
2023-04-28T10:56:15.892Z,95
2023-04-28T10:57:30.295Z,95
2023-04-28T10:58:44.733Z,101
2023-04-28T10:59:59.136Z,106
2023-04-28T11:02:27.961Z,101
2023-04-28T11:03:41.508Z,95
2023-04-28T11:04:55.916Z,95
2023-04-28T11:07:24.729Z,84
2023-04-28T11:08:39.155Z,78
2023-04-28T11:09:53.561Z,67
2023-04-28T11:11:07.984Z,61
2023-04-28T11:12:21.509Z,61
2023-04-28T11:13:35.945Z,61
2023-04-28T11:14:50.349Z,61
2023-04-28T11:16:04.763Z,61
2023-04-28T11:17:19.170Z,56
2023-04-28T11:18:33.583Z,50
2023-04-28T11:19:48.002Z,50
2023-04-28T11:21:02.418Z,45
2023-04-28T11:22:16.818Z,45
2023-04-28T11:23:31.241Z,45
2023-04-28T11:24:45.655Z,45
2023-04-28T11:26:00.064Z,45
2023-04-28T11:27:14.496Z,50
2023-04-28T11:29:42.442Z,56
2023-04-28T11:30:56.840Z,56
2023-04-28T11:32:11.255Z,61
2023-04-28T11:33:25.663Z,61
2023-04-28T11:34:40.094Z,67
2023-04-28T11:35:54.490Z,67
2023-04-28T11:37:08.911Z,73
2023-04-28T11:38:23.323Z,78
2023-04-28T11:39:37.753Z,84
2023-04-28T11:40:52.149Z,84
2023-04-28T11:42:06.561Z,84
2023-04-28T11:43:20.987Z,84
2023-04-28T11:44:34.509Z,78
2023-04-28T11:45:48.924Z,78
2023-04-28T11:47:03.340Z,73
2023-04-28T11:48:17.750Z,67
2023-04-28T11:49:32.173Z,73
2023-04-28T11:52:00.992Z,67
2023-04-28T11:53:15.409Z,67
2023-04-28T11:54:29.830Z,61
2023-04-28T11:56:58.644Z,61
2023-04-28T11:58:13.065Z,61
2023-04-28T11:59:27.485Z,61
2023-04-28T12:00:41.024Z,50
2023-04-28T12:01:55.437Z,78
2023-04-28T12:03:09.852Z,101
2023-04-28T12:04:24.245Z,118
2023-04-28T12:05:38.677Z,129
2023-04-28T12:06:53.084Z,129
2023-04-28T12:08:07.490Z,129
2023-04-28T12:09:21.911Z,123
2023-04-28T12:10:36.322Z,123
2023-04-28T12:11:50.733Z,123
2023-04-28T12:13:05.151Z,135
2023-04-28T12:14:19.559Z,135
2023-04-28T12:15:33.978Z,140
2023-04-28T12:16:48.385Z,157
2023-04-28T12:18:02.811Z,168
2023-04-28T12:19:16.341Z,191
2023-04-28T12:21:45.170Z,191
2023-04-28T12:22:59.580Z,180
2023-04-28T12:24:14.004Z,168
2023-04-28T12:25:28.422Z,157
2023-04-28T12:26:42.814Z,140
2023-04-28T12:27:57.228Z,123
2023-04-28T12:29:11.654Z,118
2023-04-28T12:30:26.069Z,118
2023-04-28T12:31:40.466Z,123
2023-04-28T12:32:54.881Z,129
2023-04-28T12:34:09.309Z,129
2023-04-28T12:36:37.265Z,129
2023-04-28T12:37:51.673Z,123
2023-04-28T12:39:06.083Z,123
2023-04-28T12:41:34.911Z,129
2023-04-28T12:42:48.452Z,123
2023-04-28T12:44:01.986Z,106
2023-04-28T12:45:16.403Z,95
2023-04-28T12:46:30.839Z,90
2023-04-28T12:47:45.239Z,84
2023-04-28T12:48:59.641Z,78
2023-04-28T12:51:28.495Z,73
2023-04-28T12:52:42.892Z,73
2023-04-28T12:53:57.309Z,73
2023-04-28T12:55:11.719Z,73
2023-04-28T12:56:26.140Z,73
2023-04-28T12:57:40.537Z,73
2023-04-28T12:58:54.947Z,73
2023-04-28T13:01:22.925Z,78
2023-04-28T13:02:37.325Z,78
2023-04-28T13:03:50.876Z,84
2023-04-28T13:06:19.705Z,106
2023-04-28T13:07:33.243Z,129
2023-04-28T13:08:47.663Z,140
2023-04-28T13:11:16.485Z,140
2023-04-28T13:12:30.883Z,140
2023-04-28T13:13:45.318Z,135
2023-04-28T13:14:59.725Z,129
2023-04-28T13:16:14.139Z,123
2023-04-28T13:17:28.548Z,129
2023-04-28T13:18:42.963Z,135
2023-04-28T13:21:11.776Z,129
2023-04-28T13:22:26.192Z,123
2023-04-28T13:23:39.730Z,112
2023-04-28T13:24:54.136Z,112
2023-04-28T13:26:08.562Z,106
2023-04-28T13:27:22.989Z,101
2023-04-28T13:28:37.399Z,90
2023-04-28T13:29:51.819Z,84
2023-04-28T13:31:06.210Z,78
2023-04-28T13:32:20.629Z,78
2023-04-28T13:33:35.037Z,73
2023-04-28T13:36:03.874Z,61
2023-04-28T13:37:18.287Z,61
2023-04-28T13:38:32.705Z,61
2023-04-28T13:39:47.112Z,67
2023-04-28T13:41:00.641Z,67
2023-04-28T13:42:15.060Z,61
2023-04-28T13:43:29.470Z,61
2023-04-28T13:45:58.316Z,61
2023-04-28T13:47:12.708Z,61
2023-04-28T13:48:27.135Z,61
2023-04-28T13:50:55.954Z,61
2023-04-28T13:52:10.361Z,61
2023-04-28T13:53:24.768Z,67
2023-04-28T13:54:39.197Z,67
2023-04-28T13:55:53.614Z,61
2023-04-28T13:57:07.136Z,61
2023-04-28T13:58:21.555Z,56
2023-04-28T13:59:35.956Z,50
2023-04-28T14:00:50.374Z,56
2023-04-28T14:02:04.792Z,56
2023-04-28T14:03:19.198Z,61
2023-04-28T14:04:33.630Z,61
2023-04-28T14:05:48.042Z,67
2023-04-28T14:07:02.451Z,61
2023-04-28T14:08:16.866Z,56
2023-04-28T14:09:31.270Z,50
2023-04-28T14:10:45.701Z,45
2023-04-28T14:11:59.247Z,45
2023-04-28T14:13:12.774Z,45
2023-04-28T14:14:27.190Z,45
2023-04-28T14:15:41.613Z,50
2023-04-28T14:16:56.011Z,56
2023-04-28T14:18:10.432Z,61
2023-04-28T14:20:39.252Z,61
2023-04-28T14:21:53.684Z,61
2023-04-28T14:23:08.085Z,61
2023-04-28T14:24:22.497Z,61
2023-04-28T14:25:36.919Z,61
2023-04-28T14:26:51.319Z,56
2023-04-28T14:28:05.762Z,56
2023-04-28T14:29:19.273Z,56
2023-04-28T14:30:33.696Z,56
2023-04-28T14:31:48.111Z,56
2023-04-28T14:33:02.523Z,50
2023-04-28T14:34:16.926Z,50
2023-04-28T14:35:31.334Z,50
2023-04-28T14:36:45.773Z,50
2023-04-28T14:38:00.188Z,45
2023-04-28T14:40:27.907Z,39
2023-04-28T14:41:42.234Z,39
2023-04-28T14:42:55.569Z,39
2023-04-28T14:44:09.868Z,39
2023-04-28T14:45:24.156Z,39
2023-04-28T14:46:38.474Z,39
2023-04-28T14:47:52.765Z,39
2023-04-28T14:50:21.372Z,45
2023-04-28T14:51:35.676Z,45
2023-04-28T14:52:49.973Z,45
2023-04-28T14:54:04.275Z,45
2023-04-28T14:56:32.877Z,45
2023-04-28T14:57:47.160Z,45
2023-04-28T14:59:00.545Z,45
2023-04-28T15:00:14.840Z,45
2023-04-28T15:01:28.179Z,45
2023-04-28T15:02:42.476Z,45
2023-04-28T15:03:56.778Z,45
2023-04-28T15:05:11.094Z,39
2023-04-28T15:06:25.383Z,39
2023-04-28T15:07:39.697Z,39
2023-04-28T15:08:53.993Z,39
2023-04-28T15:10:08.288Z,39
2023-04-28T15:12:36.890Z,33
2023-04-28T15:13:51.192Z,33
2023-04-28T15:15:05.504Z,33
2023-04-28T15:16:19.793Z,33
2023-04-28T15:18:47.444Z,33
2023-04-28T15:20:01.740Z,33
2023-04-28T15:21:15.094Z,28
2023-04-28T15:23:43.700Z,28
2023-04-28T15:24:57.991Z,28
2023-04-28T15:26:12.298Z,28
2023-04-28T15:27:26.602Z,28
2023-04-28T15:29:55.192Z,22
2023-04-28T15:31:09.517Z,22
2023-04-28T15:32:23.802Z,22
2023-04-28T15:33:38.093Z,22
2023-04-28T15:34:52.411Z,22
2023-04-28T15:36:06.698Z,22
2023-04-28T15:37:20.999Z,16
2023-04-28T15:38:35.295Z,16
2023-04-28T15:39:48.652Z,11
2023-04-28T15:41:02.958Z,11
2023-04-28T15:42:17.255Z,11
2023-04-28T15:43:31.546Z,11
2023-04-28T15:44:45.859Z,16
2023-04-28T15:46:00.159Z,16
2023-04-28T15:47:14.465Z,16
2023-04-28T15:48:28.750Z,11
2023-04-28T15:49:43.059Z,16
2023-04-28T15:50:56.429Z,16
2023-04-28T15:52:10.736Z,16
2023-04-28T15:53:25.043Z,11
2023-04-28T15:54:38.385Z,11
2023-04-28T15:55:52.682Z,11
2023-04-28T15:57:06.965Z,11
2023-04-28T15:59:35.573Z,16
2023-04-28T16:00:49.891Z,16
2023-04-28T16:02:04.173Z,16
2023-04-28T16:03:18.488Z,11
2023-04-28T16:04:32.784Z,11
2023-04-28T16:05:47.103Z,11
2023-04-28T16:08:15.676Z,11
2023-04-28T16:09:29.972Z,11
2023-04-28T16:10:44.292Z,11
2023-04-28T16:11:58.602Z,11
2023-04-28T16:14:26.240Z,11
2023-04-28T16:15:40.549Z,5
2023-04-28T16:16:53.924Z,5
2023-04-28T16:19:22.518Z,11
2023-04-28T16:20:35.859Z,11
2023-04-28T16:21:50.163Z,5
2023-04-28T16:23:04.479Z,5
2023-04-28T16:24:18.781Z,5
2023-04-28T16:25:33.064Z,11
2023-04-28T16:26:47.383Z,11
2023-04-28T16:28:01.671Z,11
2023-04-28T16:29:15.978Z,11
2023-04-28T16:30:30.266Z,11
2023-04-28T16:31:43.636Z,5
2023-04-28T16:32:57.946Z,5
2023-04-28T16:34:12.248Z,5
2023-04-28T16:35:25.587Z,5
2023-04-28T16:36:39.886Z,5
2023-04-28T16:37:54.191Z,5
2023-04-28T16:39:08.483Z,5
2023-04-28T16:40:22.782Z,5
2023-04-28T16:41:37.103Z,5
2023-04-28T16:42:51.417Z,5
2023-04-28T16:44:05.702Z,5
2023-04-28T16:45:19.990Z,11
2023-04-28T16:46:33.365Z,11
2023-04-28T16:47:47.691Z,11
2023-04-28T16:49:01.962Z,11
2023-04-28T16:50:15.000Z,11
2023-04-28T16:51:29.630Z,11
2023-04-28T16:52:43.924Z,11
2023-04-28T16:53:58.210Z,5
2023-04-28T16:55:12.514Z,5
2023-04-28T16:56:26.812Z,5
2023-04-28T16:57:41.105Z,5
2023-04-28T16:58:55.419Z,5
2023-04-28T17:01:24.017Z,5
2023-04-28T17:02:38.335Z,5
2023-04-28T17:03:52.610Z,5
2023-04-28T17:05:06.908Z,0
2023-04-28T17:06:20.262Z,0
2023-04-28T17:07:34.582Z,0
2023-04-28T17:08:48.882Z,0
2023-04-28T17:10:03.177Z,0
2023-04-28T17:11:17.494Z,0
2023-04-28T17:12:31.767Z,0
2023-04-28T17:13:46.078Z,0
2023-04-28T17:15:00.375Z,0
2023-04-28T17:16:14.668Z,0
2023-04-28T17:17:28.961Z,0
2023-04-28T17:18:43.270Z,0
2023-04-28T17:19:57.585Z,0
2023-04-28T17:21:11.867Z,0
2023-04-28T17:22:26.192Z,0
2023-04-28T17:23:39.517Z,0
2023-04-28T17:24:53.830Z,0
2023-04-28T17:26:08.114Z,0
2023-04-28T17:27:22.417Z,0
2023-04-28T17:28:36.723Z,0
2023-04-28T17:29:51.041Z,0
2023-04-28T17:31:05.338Z,0
2023-04-28T17:32:19.640Z,0
2023-04-28T17:33:33.921Z,0
2023-04-28T17:34:48.239Z,0
2023-04-28T17:37:16.850Z,0
2023-04-28T17:38:31.149Z,0
2023-04-28T17:39:45.438Z,0
2023-04-28T17:40:59.743Z,0
2023-04-28T17:43:27.375Z,0
2023-04-28T17:44:41.671Z,0
2023-04-28T17:45:56.003Z,0
2023-04-28T17:47:10.301Z,0
2023-04-28T17:48:24.588Z,5
2023-04-28T17:49:38.887Z,0
2023-04-28T17:50:53.201Z,0
2023-04-28T17:52:07.480Z,0
2023-04-28T17:53:21.771Z,0
2023-04-28T17:54:36.096Z,0
2023-04-28T17:55:50.387Z,0
2023-04-28T17:57:04.684Z,0
2023-04-28T17:58:18.050Z,0
2023-04-28T17:59:32.337Z,0
2023-04-28T18:00:46.623Z,0
2023-04-28T18:02:00.930Z,0
2023-04-28T18:03:15.232Z,0
2023-04-28T18:05:43.849Z,0
2023-04-28T18:06:58.128Z,0
2023-04-28T18:08:12.461Z,0
2023-04-28T18:09:26.733Z,0
2023-04-28T18:10:41.033Z,0
2023-04-28T18:11:55.334Z,0
2023-04-28T18:13:09.659Z,0
2023-04-28T18:14:22.982Z,0
2023-04-28T18:15:37.281Z,0
2023-04-28T18:16:51.602Z,0
2023-04-28T18:18:05.897Z,0
2023-04-28T18:19:20.207Z,0
2023-04-28T18:20:34.482Z,0
2023-04-28T18:21:48.818Z,0
2023-04-28T18:23:03.090Z,0
2023-04-28T18:24:17.387Z,0
2023-04-28T18:25:31.688Z,0
2023-04-28T18:26:45.998Z,0
2023-04-28T18:28:00.282Z,0
2023-04-28T18:29:14.602Z,0
2023-04-28T18:30:27.965Z,0
2023-04-28T18:31:42.271Z,0
2023-04-28T18:32:56.540Z,0
2023-04-28T18:34:10.851Z,0
2023-04-28T18:35:25.134Z,0
2023-04-28T18:36:39.465Z,0
2023-04-28T18:39:08.076Z,0
2023-04-28T18:40:22.337Z,0
2023-04-28T18:41:36.637Z,0
2023-04-28T18:42:50.943Z,0
2023-04-28T18:44:05.268Z,0
2023-04-28T18:45:19.547Z,0
2023-04-28T18:46:33.872Z,0
2023-04-28T18:47:47.191Z,0
2023-04-28T18:49:01.495Z,0
2023-04-28T18:50:15.821Z,0
2023-04-28T18:51:30.162Z,0
2023-04-28T18:52:44.516Z,0
2023-04-28T18:55:13.218Z,0
2023-04-28T18:56:27.569Z,0
2023-04-28T18:57:41.930Z,0
2023-04-28T18:58:56.286Z,0
2023-04-28T19:00:10.631Z,0
2023-04-28T19:01:24.992Z,0
2023-04-28T19:02:39.382Z,0
2023-04-28T19:03:53.694Z,0
2023-04-28T19:05:07.105Z,0
2023-04-28T19:06:21.458Z,0
2023-04-28T19:07:35.819Z,0
2023-04-28T19:08:50.191Z,0
2023-04-28T19:10:04.519Z,0
2023-04-28T19:11:18.887Z,0
2023-04-28T19:12:33.233Z,0
2023-04-28T19:13:47.591Z,0
2023-04-28T19:15:01.944Z,0
2023-04-28T19:17:30.644Z,0
2023-04-28T19:18:44.997Z,0
2023-04-28T19:19:59.378Z,0
2023-04-28T19:21:12.779Z,0
2023-04-28T19:22:27.124Z,0
2023-04-28T19:23:41.469Z,0